Whippany, NJ (07981)

4:00 PM EDT on October 23, 2014 (GMT -0400)
Cedar Knolls / Trailwood | Change Station
CLOSE
Current Station
Personal Weather Station
Location: Cedar Knolls, NJ
Elevation: 456 ft
Nearby Weather Stations

Elev 456 ft 40.82 °N, 74.46 °W | Updated 4 seconds ago

Rain
Rain
52.7 °F
Feels Like 52.7 °F
N
5.0
Wind Variable Wind from NNW
Gusts 11.0 mph

Today
High -- | Low -- °F
--% Chance of Precip.
Yesterday
High -- | Low -- °F
Precip. -- in
7:17 AM 6:05 PM
Waning Crescent, 0% visible
Pressure 29.73 in
Visibility 10.0 miles
Clouds Mostly Cloudy 1500 ft
Overcast 2000 ft
Dew Point 50 °F
Humidity 90%
Rainfall 0.36 in
Snow Depth Not available.
UV 1 out of 12
Pollen .30 out of 12
PM2.5 Good
Flu Activity Sporadic
METAR KMMU 231945Z 35008G17KT 10SM BKN015 OVC020 13/10 A2973

More Conditions Fewer Conditions

Pressure 29.73 in
Visibility 10.0 miles
Clouds Mostly Cloudy 1500 ft
Overcast 2000 ft
Dew Point 50 °F
Humidity 90%
Rainfall 0.36 in
Snow Depth Not available.
UV 1 out of 12
Pollen .30 out of 12
PM2.5 Good
Flu Activity Sporadic
METAR KMMU 231945Z 35008G17KT 10SM BKN015 OVC020 13/10 A2973

More Conditions Fewer Conditions

10-Day Weather Forecast

Almanac

Astronomy

Oct. 23, 2014 Rise Set
Actual Time 7:17 AM EDT 6:05 PM EDT
Civil Twilight 6:49 AM EDT 6:33 PM EDT
Nautical Twilight 6:17 AM EDT 7:05 PM EDT
Astronomical Twilight 5:46 AM EDT 7:37 PM EDT
Moon 6:54 AM EDT 6:05 PM EDT
Length of Visible Light 11h 43m
Length of Day
10h 47m
Tomorrow will be 2m 31s shorter.
Waning Crescent, 0% of the Moon is Illuminated
Today
Waning Crescent
Oct 23
New
Oct 30
First Quarter
Nov 6
Full
Nov 14
Last Quarter

Today's Extremes

State Highs State Lows

Community

WunderPhotos

Upload Photos

1,764,350 photos uploaded!

WunderBlogs® & News

By Dr. Jeff Masters
Director of Meteorology, Weather Underground
By Kari Strenfel
Meteorologist, Weather Underground
By Christopher C. Burt
Weather Historian, Weather Underground
October 23, 2014
October 23, 2014
October 23, 2014

Nearby

Air Quality

  Air Quality AQ Index Pollutant
Yesterday Good
PM2.5
Current Good
PM2.5
Thursday Good
PM2.5
Friday Good
PM2.5

Snow Depth

Station Depth Elevation
No new snow has been reported.

Earthquake Activity

City Distance Mag. Time & Date
No recent earthquake activity has been reported nearby.
Minimum magnitude displayed is 2.5.

Coastal Water Temperatures

Place Temperature
Sandy Hook, NJ 59.0 °F
The Battery, NY 62.1 °F
Kings Point, NY 59.0 °F

Nearby Weather Stations